createdAt,value
2023-04-03T00:00:00.318Z,0.40
2023-04-03T00:02:26.961Z,0.30
2023-04-03T00:04:53.627Z,0.20
2023-04-03T00:07:20.793Z,0.20
2023-04-03T00:09:47.466Z,0.40
2023-04-03T00:12:14.080Z,0.30
2023-04-03T00:14:40.847Z,0.30
2023-04-03T00:17:07.462Z,0.80
2023-04-03T00:19:35.275Z,0.60
2023-04-03T00:22:03.390Z,0.70
2023-04-03T00:24:30.288Z,0.70
2023-04-03T00:26:57.961Z,0.60
2023-04-03T00:29:24.620Z,0.60
2023-04-03T00:31:51.352Z,1.40
2023-04-03T00:34:17.982Z,0.40
2023-04-03T00:36:44.716Z,0.30
2023-04-03T00:39:11.402Z,0.40
2023-04-03T00:41:38.002Z,0.70
2023-04-03T00:44:45.678Z,0.70
2023-04-03T00:47:13.841Z,0.80
2023-04-03T00:49:41.027Z,0.70
2023-04-03T00:52:10.640Z,0.60
2023-04-03T00:54:37.876Z,0.60
2023-04-03T00:57:05.701Z,0.50
2023-04-03T00:59:34.228Z,0.60
2023-04-03T01:02:01.379Z,0.50
2023-04-03T01:04:28.955Z,0.50
2023-04-03T01:06:57.208Z,0.50
2023-04-03T01:09:23.896Z,0.60
2023-04-03T01:11:50.709Z,0.50
2023-04-03T01:14:17.414Z,0.60
2023-04-03T01:16:44.071Z,0.60
2023-04-03T01:19:16.506Z,0.50
2023-04-03T01:21:52.442Z,1.00
2023-04-03T01:24:19.112Z,1.10
2023-04-03T01:26:45.977Z,0.80
2023-04-03T01:29:12.662Z,1.00
2023-04-03T01:31:47.189Z,0.70
2023-04-03T01:34:13.833Z,0.80
2023-04-03T01:36:41.115Z,0.80
2023-04-03T01:39:08.131Z,0.90
2023-04-03T01:41:35.039Z,0.80
2023-04-03T01:44:01.723Z,0.70
2023-04-03T01:46:28.401Z,0.80
2023-04-03T01:48:55.082Z,0.70
2023-04-03T01:51:21.719Z,0.70
2023-04-03T01:53:48.373Z,0.80
2023-04-03T01:56:15.404Z,1.10
2023-04-03T01:58:42.057Z,1.10
2023-04-03T02:01:08.709Z,1.40
2023-04-03T02:03:35.511Z,1.50
2023-04-03T02:06:02.234Z,1.40
2023-04-03T02:08:28.893Z,1.60
2023-04-03T02:10:55.692Z,1.40
2023-04-03T02:13:22.378Z,1.50
2023-04-03T02:15:49.060Z,1.50
2023-04-03T02:18:16.006Z,2.00
2023-04-03T02:20:42.660Z,2.00
2023-04-03T02:23:09.670Z,2.00
2023-04-03T02:25:38.596Z,2.10
2023-04-03T02:28:06.199Z,2.10
2023-04-03T02:30:32.873Z,2.10
2023-04-03T02:32:59.561Z,2.00
2023-04-03T02:35:26.417Z,2.10
2023-04-03T02:37:53.118Z,1.90
2023-04-03T02:40:19.815Z,2.20
2023-04-03T02:42:46.666Z,2.30
2023-04-03T02:45:13.262Z,2.10
2023-04-03T02:47:42.947Z,2.10
2023-04-03T02:50:09.734Z,2.20
2023-04-03T02:52:36.392Z,2.30
2023-04-03T02:55:03.546Z,2.10
2023-04-03T02:57:30.379Z,2.20
2023-04-03T02:59:57.190Z,2.30
2023-04-03T03:02:23.932Z,2.00
2023-04-03T03:04:50.652Z,2.00
2023-04-03T03:07:17.291Z,2.10
2023-04-03T03:09:43.951Z,2.30
2023-04-03T03:12:10.685Z,2.20
2023-04-03T03:14:37.399Z,2.20
2023-04-03T03:17:04.131Z,2.20
2023-04-03T03:19:30.839Z,2.30
2023-04-03T03:21:57.958Z,2.10
2023-04-03T03:24:24.631Z,2.00
2023-04-03T03:26:51.330Z,2.30
2023-04-03T03:29:17.987Z,2.00
2023-04-03T03:31:44.698Z,1.90
2023-04-03T03:34:11.429Z,2.20
2023-04-03T03:36:38.120Z,3.00
2023-04-03T03:39:04.795Z,2.00
2023-04-03T03:41:32.050Z,2.10
2023-04-03T03:43:58.726Z,1.70
2023-04-03T03:46:25.503Z,2.00
2023-04-03T03:48:52.375Z,2.00
2023-04-03T03:51:19.034Z,2.10
2023-04-03T03:53:45.643Z,1.90
2023-04-03T03:56:12.314Z,1.50
2023-04-03T03:58:38.959Z,1.60
2023-04-03T04:01:06.750Z,1.90
2023-04-03T04:03:34.077Z,3.50
2023-04-03T04:06:01.187Z,2.00
2023-04-03T04:08:27.860Z,1.70
2023-04-03T04:10:54.509Z,1.70
2023-04-03T04:13:21.142Z,1.60
2023-04-03T04:15:47.850Z,1.80
2023-04-03T04:18:14.460Z,1.60
2023-04-03T04:20:41.105Z,1.60
2023-04-03T04:23:07.830Z,1.60
2023-04-03T04:25:34.769Z,1.80
2023-04-03T04:28:01.716Z,2.90
2023-04-03T04:30:28.528Z,1.80
2023-04-03T04:32:55.431Z,1.80
2023-04-03T04:35:22.222Z,1.90
2023-04-03T04:37:48.916Z,1.80
2023-04-03T04:40:15.725Z,1.60
2023-04-03T04:42:42.390Z,1.60
2023-04-03T04:45:09.195Z,1.50
2023-04-03T04:47:35.969Z,1.50
2023-04-03T04:50:02.628Z,2.40
2023-04-03T04:52:29.291Z,1.30
2023-04-03T04:54:55.976Z,1.20
2023-04-03T04:57:22.781Z,1.30
2023-04-03T04:59:49.416Z,1.30
2023-04-03T05:02:16.273Z,1.40
2023-04-03T05:04:42.938Z,1.80
2023-04-03T05:07:09.631Z,1.20
2023-04-03T05:09:36.320Z,1.20
2023-04-03T05:12:03.975Z,1.30
2023-04-03T05:14:31.072Z,1.20
2023-04-03T05:16:58.605Z,1.10
2023-04-03T05:19:25.466Z,1.10
2023-04-03T05:21:54.580Z,1.20
2023-04-03T05:24:21.308Z,1.30
2023-04-03T05:26:47.984Z,1.20
2023-04-03T05:29:14.671Z,1.10
2023-04-03T05:31:41.434Z,1.20
2023-04-03T05:34:08.026Z,1.10
2023-04-03T05:36:34.669Z,1.30
2023-04-03T05:39:01.602Z,1.30
2023-04-03T05:41:28.474Z,1.30
2023-04-03T05:43:55.369Z,1.10
2023-04-03T05:46:22.347Z,2.10
2023-04-03T05:48:49.173Z,1.30
2023-04-03T05:51:20.260Z,2.40
2023-04-03T05:53:47.547Z,1.90
2023-04-03T05:56:14.212Z,1.20
2023-04-03T05:58:40.980Z,1.50
2023-04-03T06:01:07.697Z,2.50
2023-04-03T06:03:34.884Z,1.70
2023-04-03T06:06:04.487Z,1.70
2023-04-03T06:08:31.294Z,1.90
2023-04-03T06:10:58.073Z,2.00
2023-04-03T06:13:24.787Z,2.00
2023-04-03T06:15:51.468Z,2.00
2023-04-03T06:18:18.102Z,1.90
2023-04-03T06:20:44.767Z,1.80
2023-04-03T06:23:11.526Z,2.10
2023-04-03T06:25:38.273Z,2.10
2023-04-03T06:28:04.980Z,2.20
2023-04-03T06:30:31.823Z,3.70
2023-04-03T06:32:58.521Z,1.90
2023-04-03T06:35:25.251Z,2.30
2023-04-03T06:40:23.249Z,2.40
2023-04-03T06:42:50.111Z,2.50
2023-04-03T06:45:17.049Z,2.10
2023-04-03T06:50:12.670Z,2.60
2023-04-03T06:52:41.066Z,2.50
2023-04-03T06:55:08.239Z,2.60
2023-04-03T06:57:34.936Z,2.70
2023-04-03T07:00:01.665Z,2.50
2023-04-03T07:02:28.336Z,2.20
2023-04-03T07:04:55.077Z,2.40
2023-04-03T07:07:21.780Z,2.10
2023-04-03T07:09:49.028Z,3.70
2023-04-03T07:12:17.258Z,4.20
2023-04-03T07:22:05.736Z,4.00
2023-04-03T07:24:33.927Z,3.80
2023-04-03T07:31:56.988Z,4.50
2023-04-03T07:34:23.796Z,4.00
2023-04-03T07:36:50.497Z,4.20
2023-04-03T07:39:17.199Z,4.00
2023-04-03T07:41:43.864Z,3.80
2023-04-03T07:44:13.673Z,3.20
2023-04-03T07:46:41.719Z,3.50
2023-04-03T07:49:08.445Z,2.90
2023-04-03T07:51:35.690Z,3.90
2023-04-03T07:58:56.969Z,5.00
2023-04-03T08:01:23.644Z,5.60
2023-04-03T08:11:21.860Z,5.40
2023-04-03T08:16:21.334Z,5.40
2023-04-03T08:18:48.116Z,5.60
2023-04-03T08:21:14.792Z,4.80
2023-04-03T08:26:13.219Z,6.00
2023-04-03T08:28:41.077Z,5.40
2023-04-03T08:33:36.854Z,6.10
2023-04-03T08:36:07.755Z,6.10
2023-04-03T08:41:21.292Z,6.50
2023-04-03T08:43:57.655Z,6.70
2023-04-03T08:46:27.716Z,6.90
2023-04-03T08:48:54.731Z,7.00
2023-04-03T08:51:21.644Z,7.10
2023-04-03T08:53:57.956Z,8.20
2023-04-03T08:56:25.632Z,7.40
2023-04-03T08:58:57.172Z,8.50
2023-04-03T09:01:37.477Z,8.60
2023-04-03T09:04:11.001Z,9.20
2023-04-03T09:06:39.322Z,7.40
2023-04-03T09:09:31.374Z,8.00
2023-04-03T09:12:10.152Z,7.20
2023-04-03T09:14:44.279Z,7.20
2023-04-03T09:19:59.297Z,6.90
2023-04-03T09:22:30.260Z,6.80
2023-04-03T09:25:17.763Z,6.80
2023-04-03T09:30:22.617Z,6.20
2023-04-03T09:32:50.332Z,6.50
2023-04-03T09:35:20.512Z,6.20
2023-04-03T09:37:54.363Z,7.90
2023-04-03T09:40:27.128Z,6.80
2023-04-03T09:43:01.211Z,6.80
2023-04-03T09:45:31.670Z,7.90
2023-04-03T09:50:26.152Z,7.60
2023-04-03T09:52:53.114Z,8.00
2023-04-03T09:55:19.826Z,9.50
2023-04-03T09:57:47.052Z,8.30
2023-04-03T10:00:25.180Z,7.00
2023-04-03T10:02:53.208Z,8.00
2023-04-03T10:05:28.288Z,6.70
2023-04-03T10:08:18.621Z,8.20
2023-04-03T10:10:46.677Z,8.10
2023-04-03T10:13:20.908Z,9.50
2023-04-03T10:18:48.747Z,8.00
2023-04-03T10:21:27.165Z,7.90
2023-04-03T10:24:00.869Z,7.40
2023-04-03T10:26:38.597Z,7.60
2023-04-03T10:34:05.996Z,7.00
2023-04-03T10:36:48.619Z,7.70
2023-04-03T10:39:27.763Z,8.40
2023-04-03T10:41:58.222Z,9.00
2023-04-03T10:47:07.760Z,9.70
2023-04-03T10:49:59.379Z,10.30
2023-04-03T10:57:23.035Z,10.80
2023-04-03T11:02:30.451Z,10.40
2023-04-03T11:05:10.857Z,10.90
2023-04-03T11:07:43.748Z,10.80
2023-04-03T11:10:23.788Z,11.10
2023-04-03T11:12:53.782Z,11.20
2023-04-03T11:20:28.812Z,12.10
2023-04-03T11:25:24.409Z,12.20
2023-04-03T11:33:11.198Z,12.10
2023-04-03T11:35:39.097Z,11.80
2023-04-03T11:38:09.234Z,12.40
2023-04-03T11:40:38.032Z,13.50
2023-04-03T11:43:23.873Z,13.40
2023-04-03T11:45:52.126Z,12.50
2023-04-03T11:48:24.554Z,14.20
2023-04-03T11:50:53.086Z,14.20
2023-04-03T11:53:28.469Z,14.20
2023-04-03T11:58:37.274Z,14.40
2023-04-03T12:01:08.720Z,14.70
2023-04-03T12:03:56.880Z,14.50
2023-04-03T12:06:37.044Z,15.30
2023-04-03T12:09:22.650Z,14.00
2023-04-03T12:11:49.651Z,13.70
2023-04-03T12:14:24.220Z,12.10
2023-04-03T12:16:53.060Z,12.70
2023-04-03T12:19:41.362Z,13.90
2023-04-03T12:22:11.597Z,14.60
2023-04-03T12:24:40.797Z,14.80
2023-04-03T12:27:18.010Z,15.40
2023-04-03T12:29:52.569Z,14.70
2023-04-03T12:32:22.604Z,15.70
2023-04-03T12:34:57.451Z,15.90
2023-04-03T12:37:36.505Z,15.00
2023-04-03T12:40:22.190Z,14.30
2023-04-03T12:42:48.875Z,16.00
2023-04-03T12:45:15.455Z,16.00
2023-04-03T12:47:44.974Z,15.70
2023-04-03T12:50:38.635Z,16.50
2023-04-03T12:53:07.287Z,16.40
2023-04-03T12:55:34.080Z,16.70
2023-04-03T12:58:17.412Z,16.20
2023-04-03T13:00:44.339Z,15.90
2023-04-03T13:03:28.150Z,17.40
2023-04-03T13:06:00.425Z,17.40
2023-04-03T13:08:27.478Z,16.60
2023-04-03T13:13:21.663Z,16.30
2023-04-03T13:15:56.127Z,16.80
2023-04-03T13:18:33.745Z,17.10
2023-04-03T13:24:13.823Z,16.90
2023-04-03T13:26:42.854Z,17.60
2023-04-03T13:29:29.940Z,18.00
2023-04-03T13:31:59.220Z,18.60
2023-04-03T13:34:27.614Z,17.80
2023-04-03T13:36:54.643Z,16.80
2023-04-03T13:39:23.797Z,18.30
2023-04-03T13:42:16.835Z,16.60
2023-04-03T13:44:49.940Z,18.10
2023-04-03T13:47:19.121Z,19.20
2023-04-03T13:49:47.569Z,19.20
2023-04-03T13:52:27.031Z,20.60
2023-04-03T13:54:58.535Z,19.60
2023-04-03T13:57:25.240Z,17.30
2023-04-03T13:59:52.581Z,17.60
2023-04-03T14:02:40.604Z,19.00
2023-04-03T14:05:09.389Z,18.60
2023-04-03T14:07:36.517Z,18.70
2023-04-03T14:10:03.268Z,18.00
2023-04-03T14:15:00.671Z,15.30
2023-04-03T14:17:37.330Z,17.00
2023-04-03T14:20:04.365Z,15.60
2023-04-03T14:24:58.729Z,16.30
2023-04-03T14:29:58.988Z,18.30
2023-04-03T14:34:56.389Z,19.00
2023-04-03T14:37:24.740Z,18.20
2023-04-03T14:39:51.801Z,16.30
2023-04-03T14:42:21.065Z,16.30
2023-04-03T14:44:48.503Z,18.50
2023-04-03T14:47:39.177Z,19.10
2023-04-03T14:50:12.397Z,17.70
2023-04-03T14:55:08.077Z,18.60
2023-04-03T14:57:35.606Z,19.50
2023-04-03T15:00:06.179Z,19.90
2023-04-03T15:05:05.047Z,20.00
2023-04-03T15:12:30.447Z,15.70
2023-04-03T15:15:01.770Z,16.90
2023-04-03T15:17:38.237Z,16.20
2023-04-03T15:20:12.213Z,18.10
2023-04-03T15:27:37.217Z,13.40
2023-04-03T15:32:32.563Z,11.20
2023-04-03T15:35:00.013Z,13.60
2023-04-03T15:37:27.385Z,15.20
2023-04-03T15:42:21.606Z,16.20
2023-04-03T15:44:48.545Z,15.80
2023-04-03T15:47:15.499Z,16.70
2023-04-03T15:52:09.279Z,16.20
2023-04-03T16:07:56.231Z,11.30
2023-04-03T16:10:25.149Z,11.30
2023-04-03T16:12:51.858Z,13.20
2023-04-03T16:15:18.526Z,14.60
2023-04-03T16:17:59.049Z,15.10
2023-04-03T16:20:26.064Z,15.70
2023-04-03T16:22:53.339Z,15.60
2023-04-03T16:25:21.278Z,17.10
2023-04-03T16:27:47.988Z,15.60
2023-04-03T16:30:14.744Z,15.80
2023-04-03T16:42:37.971Z,9.80
2023-04-03T16:49:59.457Z,7.90
2023-04-03T18:19:20.626Z,3.90
2023-04-03T18:21:46.082Z,3.80
2023-04-03T18:24:27.273Z,4.20
2023-04-03T18:26:56.319Z,3.60
2023-04-03T18:31:54.547Z,3.50
2023-04-03T18:34:21.225Z,4.50
2023-04-03T18:36:49.125Z,3.20
2023-04-03T18:39:42.110Z,4.00
2023-04-03T18:42:18.303Z,3.40
2023-04-03T18:47:20.500Z,3.30
2023-04-03T18:49:47.263Z,4.10
2023-04-03T18:52:13.967Z,4.00
2023-04-03T18:54:42.751Z,4.00
2023-04-03T18:57:16.893Z,2.70
2023-04-03T18:59:50.133Z,4.30
2023-04-03T19:02:18.600Z,3.70
2023-04-03T19:07:25.969Z,3.00
2023-04-03T19:09:52.792Z,3.70
2023-04-03T19:14:49.067Z,2.70
2023-04-03T19:17:15.816Z,2.70
2023-04-03T19:19:42.377Z,2.80
2023-04-03T19:22:09.236Z,2.50
2023-04-03T19:24:37.412Z,2.50
2023-04-03T19:27:04.413Z,2.70
2023-04-03T19:29:31.022Z,3.40
2023-04-03T19:31:57.627Z,3.60
2023-04-03T19:34:24.265Z,2.40
2023-04-03T19:36:52.250Z,2.40
2023-04-03T19:39:18.983Z,3.70
2023-04-03T19:41:46.221Z,2.00
2023-04-03T19:44:13.026Z,2.30
2023-04-03T19:46:51.329Z,2.00
2023-04-03T19:49:18.764Z,2.70
2023-04-03T19:51:45.437Z,2.10
2023-04-03T19:54:12.067Z,2.30
2023-04-03T19:56:39.953Z,2.00
2023-04-03T19:59:08.554Z,2.90
2023-04-03T20:01:35.361Z,3.00
2023-04-03T20:04:02.777Z,2.30
2023-04-03T20:06:29.506Z,2.20
2023-04-03T20:08:56.299Z,2.90
2023-04-03T20:11:23.768Z,2.10
2023-04-03T20:13:51.142Z,2.00
2023-04-03T20:16:18.757Z,1.90
2023-04-03T20:18:46.474Z,2.00
2023-04-03T20:21:18.807Z,2.70
2023-04-03T20:23:51.300Z,2.50
2023-04-03T20:26:23.572Z,1.60
2023-04-03T20:28:51.038Z,2.10
2023-04-03T20:31:17.871Z,1.80
2023-04-03T20:33:44.936Z,2.00
2023-04-03T20:36:12.250Z,2.00
2023-04-03T20:38:49.248Z,1.90
2023-04-03T20:41:16.542Z,2.90
2023-04-03T20:43:43.830Z,1.60
2023-04-03T20:46:14.454Z,2.90
2023-04-03T20:48:41.609Z,2.40
2023-04-03T20:53:35.275Z,1.60
2023-04-03T20:56:01.856Z,1.20
2023-04-03T21:01:00.847Z,1.50
2023-04-03T21:03:30.961Z,2.60
2023-04-03T21:06:00.799Z,1.50
2023-04-03T21:08:46.532Z,1.50
2023-04-03T21:11:32.639Z,1.50
2023-04-03T21:14:19.207Z,1.50
2023-04-03T21:16:46.740Z,1.50
2023-04-03T21:19:15.806Z,1.50
2023-04-03T21:21:45.591Z,1.90
2023-04-03T21:24:16.244Z,1.20
2023-04-03T21:26:45.222Z,2.20
2023-04-03T21:29:11.981Z,1.10
2023-04-03T21:31:49.125Z,1.20
2023-04-03T21:34:20.062Z,1.50
2023-04-03T21:36:49.792Z,1.50
2023-04-03T21:39:21.870Z,1.30
2023-04-03T21:41:52.233Z,1.70
2023-04-03T21:44:19.385Z,1.40
2023-04-03T21:46:46.643Z,1.20
2023-04-03T21:49:13.419Z,1.10
2023-04-03T21:51:42.034Z,0.90
2023-04-03T21:54:08.775Z,2.20
2023-04-03T21:59:03.157Z,1.40
2023-04-03T22:01:36.364Z,1.10
2023-04-03T22:04:06.093Z,1.10
2023-04-03T22:06:39.041Z,1.50
2023-04-03T22:11:33.288Z,1.30
2023-04-03T22:14:02.887Z,1.00
2023-04-03T22:16:33.739Z,0.80
2023-04-03T22:19:01.554Z,2.00
2023-04-03T22:21:28.222Z,0.70
2023-04-03T22:23:58.315Z,1.60
2023-04-03T22:26:27.444Z,1.20
2023-04-03T22:28:54.031Z,1.50
2023-04-03T22:31:21.181Z,0.40
2023-04-03T22:33:48.054Z,1.80
2023-04-03T22:36:14.908Z,1.70
2023-04-03T22:38:44.839Z,0.50
2023-04-03T22:41:11.833Z,1.70
2023-04-03T22:43:38.920Z,0.60
2023-04-03T22:46:07.347Z,2.00
2023-04-03T22:48:34.174Z,1.90
2023-04-03T22:51:01.634Z,0.40
2023-04-03T22:56:01.187Z,0.80
2023-04-03T22:58:37.460Z,0.80
2023-04-03T23:01:08.531Z,1.10
2023-04-03T23:03:35.936Z,0.90
2023-04-03T23:06:03.617Z,0.70
2023-04-03T23:08:38.951Z,0.60
2023-04-03T23:11:08.411Z,1.30
2023-04-03T23:13:39.036Z,1.30
2023-04-03T23:16:05.867Z,1.10
2023-04-03T23:18:33.080Z,1.40
2023-04-03T23:21:01.373Z,1.00
2023-04-03T23:23:31.209Z,1.00
2023-04-03T23:25:59.291Z,1.00
2023-04-03T23:28:29.315Z,0.30
2023-04-03T23:31:03.314Z,0.50
2023-04-03T23:33:41.125Z,0.50
2023-04-03T23:36:08.775Z,0.90
2023-04-03T23:38:36.011Z,0.50
2023-04-03T23:41:05.220Z,0.40
2023-04-03T23:43:34.021Z,0.50
2023-04-03T23:46:00.775Z,0.20
2023-04-03T23:48:30.455Z,0.60
2023-04-03T23:50:57.072Z,-0.30
2023-04-03T23:53:25.777Z,1.30
2023-04-03T23:55:52.481Z,1.20
2023-04-03T23:58:24.012Z,1.00
